Terminal Aerodrome Forecast
Issued by NWS

Home | Current Version | Previous Version | Text Only | Print | Product List | Glossary On
Versions: 1 2 3 4 5 6 7 8 9 10 11 12 13
000
FTUS43 KEAX 250520
TAFSTJ
TAF
KSTJ 250520Z 2506/2606 18009KT P6SM FEW200
     FM251400 16012KT P6SM BKN040 OVC120
     FM260000 19009KT P6SM VCSH BKN025
     FM260300 32008KT P6SM -SHRA BKN015
      AMD NOT SKED=

USA.gov is the U.S. government's official web portal to all federal, state and local government web resources and services.